Time;durP1;ratioP1;P1;durP2;ratioP2;P2;SDS_P1;SDS_P2;PMS_P1;PMS_P2;Temp;Humidity;BMP_temperature;BMP_pressure;BME280_temperature;BME280_humidity;BME280_pressure;Samples;Min_cycle;Max_cycle;Signal;HPM_P1;HPM_P2
2022/09/16 00:00:46;;;;;;;2.10;1.60;;;19.30;99.90;;;;;;5031938;28;20219;-72
2022/09/16 00:03:15;;;;;;;1.83;1.73;;;19.20;99.90;;;;;;5038989;28;20211;-72
2022/09/16 00:05:43;;;;;;;1.80;1.70;;;19.20;99.90;;;;;;5035313;28;20238;-72
2022/09/16 00:08:11;;;;;;;3.20;1.90;;;19.30;99.90;;;;;;5032240;28;20207;-74
2022/09/16 00:10:38;;;;;;;1.48;1.38;;;19.30;99.90;;;;;;5031608;28;20219;-72
2022/09/16 00:13:06;;;;;;;1.75;1.40;;;19.30;99.90;;;;;;5035019;28;20247;-72
2022/09/16 00:15:34;;;;;;;1.48;1.38;;;19.40;99.90;;;;;;5039392;28;20224;-73
2022/09/16 00:18:02;;;;;;;1.65;1.55;;;19.40;99.90;;;;;;5038362;28;20201;-72
2022/09/16 00:20:29;;;;;;;1.50;1.40;;;19.40;99.90;;;;;;5037115;28;20303;-72
2022/09/16 00:22:56;;;;;;;2.08;1.63;;;19.40;99.90;;;;;;5036720;28;20221;-72
2022/09/16 00:25:23;;;;;;;1.58;1.48;;;19.40;99.90;;;;;;5031517;28;20219;-73
2022/09/16 00:27:50;;;;;;;1.77;1.40;;;19.40;99.90;;;;;;5036936;28;20196;-73
2022/09/16 00:30:17;;;;;;;1.70;1.60;;;19.40;99.90;;;;;;5033592;28;20230;-72
2022/09/16 00:32:45;;;;;;;2.25;1.80;;;19.40;99.90;;;;;;5037590;28;20228;-72
2022/09/16 00:35:13;;;;;;;1.42;1.33;;;19.40;99.90;;;;;;5033327;28;20601;-72
2022/09/16 00:37:40;;;;;;;1.88;1.65;;;19.30;99.90;;;;;;5035385;28;20199;-72
2022/09/16 00:40:07;;;;;;;1.75;1.60;;;19.40;99.90;;;;;;5038032;28;20235;-72
2022/09/16 00:42:38;;;;;;;1.70;1.60;;;19.40;99.90;;;;;;5037764;28;20188;-72
2022/09/16 00:45:07;;;;;;;1.92;1.60;;;19.30;99.90;;;;;;5037269;28;20223;-72
2022/09/16 00:47:38;;;;;;;1.50;1.40;;;19.30;99.90;;;;;;5036238;28;20208;-72
2022/09/16 00:50:10;;;;;;;1.67;1.58;;;19.30;99.90;;;;;;5034097;28;20227;-72
2022/09/16 00:52:39;;;;;;;1.73;1.63;;;19.40;99.90;;;;;;5041234;28;20215;-72
2022/09/16 00:55:09;;;;;;;1.60;1.50;;;19.40;99.90;;;;;;5035191;28;20220;-72
2022/09/16 00:57:38;;;;;;;1.65;1.40;;;19.40;99.90;;;;;;5036764;28;20199;-72
2022/09/16 01:00:07;;;;;;;1.60;1.50;;;19.40;99.90;;;;;;5033736;28;20271;-72
2022/09/16 01:02:34;;;;;;;2.35;1.50;;;19.40;99.90;;;;;;5037178;28;20204;-72
2022/09/16 01:05:05;;;;;;;1.48;1.38;;;19.30;99.90;;;;;;5036158;28;20220;-72
2022/09/16 01:07:39;;;;;;;1.40;1.30;;;19.30;99.90;;;;;;5036453;28;20215;-72
2022/09/16 01:10:06;;;;;;;1.58;1.40;;;19.40;99.90;;;;;;5038009;28;20250;-72
2022/09/16 01:12:34;;;;;;;1.70;1.60;;;19.40;99.90;;;;;;5032408;28;20226;-72
2022/09/16 01:15:02;;;;;;;1.60;1.50;;;19.40;99.90;;;;;;5034541;28;20783;-72
2022/09/16 01:17:43;;;;;;;1.10;1.10;;;19.30;99.90;;;;;;5034973;28;20184;-72
2022/09/16 01:20:36;;;;;;;2.03;1.50;;;19.30;99.90;;;;;;5034979;28;20219;-73
2022/09/16 01:23:26;;;;;;;1.40;1.30;;;19.30;99.90;;;;;;5024077;28;20218;-72
2022/09/16 01:26:08;;;;;;;1.38;1.27;;;19.30;99.90;;;;;;5038047;28;20219;-73
2022/09/16 01:29:16;;;;;;;1.35;1.17;;;19.30;99.90;;;;;;5041423;28;20249;-72
2022/09/16 01:31:52;;;;;;;1.50;1.38;;;19.30;99.90;;;;;;5025877;28;20227;-72
2022/09/16 01:34:27;;;;;;;1.63;1.52;;;19.30;99.90;;;;;;5040051;28;20215;-71
2022/09/16 01:37:00;;;;;;;1.35;1.25;;;19.20;99.90;;;;;;5039214;28;20203;-72
2022/09/16 01:39:34;;;;;;;1.50;1.40;;;19.20;99.90;;;;;;5035774;28;20200;-72
2022/09/16 01:42:23;;;;;;;2.20;1.40;;;19.20;99.90;;;;;;5034739;28;20210;-72
2022/09/16 01:45:00;;;;;;;1.83;1.60;;;19.20;99.90;;;;;;5037257;28;20709;-72
2022/09/16 01:47:36;;;;;;;1.10;1.10;;;19.20;99.90;;;;;;5041571;28;20199;-72
2022/09/16 01:50:11;;;;;;;1.50;1.40;;;19.20;99.90;;;;;;5036059;28;21703;-71
2022/09/16 01:52:45;;;;;;;1.13;1.13;;;19.20;99.90;;;;;;5044184;28;20730;-72
2022/09/16 01:55:19;;;;;;;1.90;1.30;;;19.20;99.90;;;;;;5035527;28;20227;-72
2022/09/16 01:57:53;;;;;;;1.38;1.27;;;19.20;99.90;;;;;;5030153;28;20196;-72
2022/09/16 02:00:21;;;;;;;1.20;1.17;;;19.10;99.90;;;;;;5035745;28;20226;-72
2022/09/16 02:02:54;;;;;;;1.60;1.23;;;19.10;99.90;;;;;;5038840;28;20223;-72
2022/09/16 02:05:27;;;;;;;1.10;1.10;;;19.10;99.90;;;;;;5035913;28;20215;-72
2022/09/16 02:07:59;;;;;;;1.00;1.00;;;19.10;99.90;;;;;;5036959;28;20207;-71
2022/09/16 02:10:30;;;;;;;1.60;1.30;;;19.10;99.90;;;;;;5039737;28;20277;-72
2022/09/16 02:13:03;;;;;;;1.30;1.20;;;19.10;99.90;;;;;;5038049;28;20228;-72
2022/09/16 02:15:33;;;;;;;1.40;1.30;;;19.10;99.90;;;;;;5034636;28;20789;-72
2022/09/16 02:18:07;;;;;;;1.35;1.25;;;19.10;99.90;;;;;;5036890;28;20646;-72
2022/09/16 02:20:39;;;;;;;1.23;1.20;;;19.10;99.90;;;;;;5033316;28;20219;-72
2022/09/16 02:23:11;;;;;;;1.55;1.20;;;19.10;99.90;;;;;;5039799;28;20242;-72
2022/09/16 02:25:41;;;;;;;1.20;1.10;;;19.00;99.90;;;;;;5033152;28;20215;-72
2022/09/16 02:28:12;;;;;;;2.60;1.35;;;19.00;99.90;;;;;;5037549;28;20204;-72
2022/09/16 02:30:44;;;;;;;1.88;1.30;;;19.00;99.90;;;;;;5034026;28;20219;-72
2022/09/16 02:33:15;;;;;;;1.90;1.10;;;19.00;99.90;;;;;;5037627;28;20748;-72
2022/09/16 02:35:46;;;;;;;1.92;1.30;;;18.90;99.90;;;;;;5038045;28;20227;-72
2022/09/16 02:38:18;;;;;;;1.42;1.33;;;18.90;99.90;;;;;;5033647;28;20207;-72
2022/09/16 02:40:51;;;;;;;1.30;1.10;;;18.90;99.90;;;;;;5035808;28;20223;-71
2022/09/16 02:43:19;;;;;;;1.45;1.35;;;18.90;99.90;;;;;;5039102;28;20223;-72
2022/09/16 02:45:52;;;;;;;1.50;1.35;;;18.90;99.90;;;;;;5032437;28;20232;-71
2022/09/16 02:48:29;;;;;;;1.20;1.20;;;18.90;99.90;;;;;;5034587;28;20192;-71
2022/09/16 02:51:02;;;;;;;1.02;1.02;;;18.80;99.90;;;;;;5031666;28;20294;-72
2022/09/16 02:53:39;;;;;;;1.63;1.50;;;18.80;99.90;;;;;;5033318;28;20291;-72
2022/09/16 02:56:13;;;;;;;1.52;1.42;;;18.80;99.90;;;;;;5034382;28;20606;-72
2022/09/16 02:58:40;;;;;;;1.58;1.48;;;18.70;99.90;;;;;;5035390;28;20207;-72
2022/09/16 03:01:08;;;;;;;3.22;1.50;;;18.70;99.90;;;;;;5028664;28;20220;-72
2022/09/16 03:03:36;;;;;;;1.33;1.27;;;18.70;99.90;;;;;;5033017;28;20224;-72
2022/09/16 03:06:20;;;;;;;1.63;1.42;;;18.70;99.90;;;;;;5032779;28;20230;-72
2022/09/16 03:08:49;;;;;;;1.23;1.20;;;18.60;99.90;;;;;;5032332;28;20198;-72
2022/09/16 03:11:48;;;;;;;1.20;1.10;;;18.60;99.90;;;;;;5036088;28;20229;-73
2022/09/16 03:14:35;;;;;;;1.25;1.20;;;18.70;99.90;;;;;;5030450;28;20578;-72
2022/09/16 03:17:13;;;;;;;1.52;1.30;;;18.60;99.90;;;;;;5035932;28;20204;-71
2022/09/16 03:19:55;;;;;;;1.40;1.30;;;18.60;99.90;;;;;;5033319;28;20221;-72
2022/09/16 03:22:37;;;;;;;1.17;1.15;;;18.50;99.90;;;;;;5032556;28;20199;-73
2022/09/16 03:25:14;;;;;;;1.40;1.20;;;18.50;99.90;;;;;;5036814;28;20306;-72
2022/09/16 03:27:48;;;;;;;1.20;1.20;;;18.40;99.90;;;;;;5031570;28;20211;-72
2022/09/16 03:30:15;;;;;;;1.00;1.00;;;18.40;99.90;;;;;;5032836;28;20226;-72
2022/09/16 03:32:47;;;;;;;1.15;1.15;;;18.40;99.90;;;;;;5035323;28;20199;-72
2022/09/16 03:35:21;;;;;;;1.35;1.25;;;18.40;99.90;;;;;;5030346;28;20228;-72
2022/09/16 03:37:49;;;;;;;1.50;1.40;;;18.40;99.90;;;;;;5039517;28;20676;-72
2022/09/16 03:40:19;;;;;;;1.45;1.30;;;18.40;99.90;;;;;;5036301;28;20254;-72
2022/09/16 03:42:46;;;;;;;1.55;1.33;;;18.40;99.90;;;;;;5038713;28;20580;-72
2022/09/16 03:45:16;;;;;;;1.63;1.48;;;18.40;99.90;;;;;;5037588;28;20221;-72
2022/09/16 03:47:44;;;;;;;1.40;1.30;;;18.30;99.90;;;;;;5036957;28;20356;-72
2022/09/16 03:50:13;;;;;;;1.50;1.40;;;18.30;99.90;;;;;;5033960;28;20219;-71
2022/09/16 03:52:41;;;;;;;2.92;1.23;;;18.30;99.90;;;;;;5041939;28;20200;-72
2022/09/16 03:55:09;;;;;;;1.15;1.15;;;18.20;99.90;;;;;;5030461;28;20219;-72
2022/09/16 03:57:37;;;;;;;1.40;1.30;;;18.20;99.90;;;;;;5034465;28;20617;-72
2022/09/16 04:00:04;;;;;;;1.33;1.23;;;18.20;99.90;;;;;;5029730;28;20237;-71
2022/09/16 04:02:31;;;;;;;1.23;1.17;;;18.20;99.90;;;;;;5035876;28;20201;-72
2022/09/16 04:04:58;;;;;;;1.13;1.10;;;18.20;99.90;;;;;;5036434;28;20231;-73
2022/09/16 04:07:26;;;;;;;1.27;1.17;;;18.20;99.90;;;;;;5035034;28;20670;-72
2022/09/16 04:09:54;;;;;;;1.48;1.20;;;18.20;99.90;;;;;;5033821;28;20228;-72
2022/09/16 04:12:21;;;;;;;1.30;1.20;;;18.20;99.90;;;;;;5037445;28;20222;-72
2022/09/16 04:14:49;;;;;;;1.27;1.27;;;18.10;99.90;;;;;;5036846;28;20238;-72
2022/09/16 04:17:16;;;;;;;1.50;1.40;;;18.20;99.90;;;;;;5030449;28;20322;-72
2022/09/16 04:19:44;;;;;;;1.50;1.40;;;18.20;99.90;;;;;;5034070;28;20289;-72
2022/09/16 04:22:11;;;;;;;1.40;1.30;;;18.10;99.90;;;;;;5035370;28;20199;-72
2022/09/16 04:24:38;;;;;;;1.25;1.10;;;18.10;99.90;;;;;;5032639;28;20231;-72
2022/09/16 04:27:06;;;;;;;2.45;1.30;;;18.10;99.90;;;;;;5035785;28;20705;-72
2022/09/16 04:29:34;;;;;;;1.38;1.27;;;18.00;99.90;;;;;;5029782;28;20230;-72
2022/09/16 04:32:01;;;;;;;1.48;1.30;;;18.00;99.90;;;;;;5035552;28;20238;-72
2022/09/16 04:34:28;;;;;;;1.70;1.60;;;18.00;99.90;;;;;;5034183;28;20243;-71
2022/09/16 04:36:55;;;;;;;1.38;1.27;;;18.00;99.90;;;;;;5035133;28;20196;-73
2022/09/16 04:39:22;;;;;;;1.52;1.40;;;18.00;99.90;;;;;;5040349;28;20680;-72
2022/09/16 04:41:49;;;;;;;1.73;1.48;;;18.00;99.90;;;;;;5039270;28;20687;-72
2022/09/16 04:44:18;;;;;;;1.40;1.30;;;18.00;99.90;;;;;;5036101;28;20219;-71
2022/09/16 04:46:45;;;;;;;1.40;1.30;;;17.90;99.90;;;;;;5036377;28;20211;-72
2022/09/16 04:49:12;;;;;;;1.23;1.13;;;17.90;99.90;;;;;;5027930;28;20188;-72
2022/09/16 04:51:39;;;;;;;1.23;1.20;;;17.90;99.90;;;;;;5035873;28;20255;-72
2022/09/16 04:54:06;;;;;;;1.38;1.27;;;17.90;99.90;;;;;;5038684;28;20227;-72
2022/09/16 04:56:34;;;;;;;1.50;1.40;;;17.90;99.90;;;;;;5035617;28;20703;-73
2022/09/16 04:59:04;;;;;;;1.73;1.63;;;17.90;99.90;;;;;;5036796;28;20227;-72
2022/09/16 05:01:36;;;;;;;1.70;1.60;;;17.90;99.90;;;;;;5037613;28;20231;-72
2022/09/16 05:04:06;;;;;;;1.33;1.25;;;17.90;99.90;;;;;;5040671;28;20728;-72
2022/09/16 05:06:35;;;;;;;1.50;1.40;;;18.00;99.90;;;;;;5037835;28;20246;-73
2022/09/16 05:09:04;;;;;;;1.40;1.40;;;18.10;99.90;;;;;;5043608;28;20200;-72
2022/09/16 05:11:32;;;;;;;1.60;1.38;;;18.10;99.90;;;;;;5048191;28;20237;-73
2022/09/16 05:14:00;;;;;;;1.80;1.58;;;18.20;99.90;;;;;;5041537;28;20234;-72
2022/09/16 05:16:27;;;;;;;1.70;1.60;;;18.30;99.90;;;;;;5033172;28;20215;-73
2022/09/16 05:18:57;;;;;;;1.52;1.42;;;18.40;99.90;;;;;;5040455;28;20666;-73
2022/09/16 05:21:26;;;;;;;1.52;1.42;;;18.50;99.90;;;;;;5039797;28;20234;-72
2022/09/16 05:23:54;;;;;;;1.30;1.20;;;18.70;99.90;;;;;;5044566;28;20219;-72
2022/09/16 05:26:23;;;;;;;2.35;1.60;;;18.70;99.90;;;;;;5039486;28;20242;-73
2022/09/16 05:28:51;;;;;;;2.60;1.60;;;18.90;99.90;;;;;;5041682;28;20207;-72
2022/09/16 05:31:20;;;;;;;2.42;1.40;;;18.90;99.90;;;;;;5042747;28;20223;-73
2022/09/16 05:33:53;;;;;;;1.60;1.50;;;19.00;99.90;;;;;;5043800;28;20234;-76
2022/09/16 05:36:23;;;;;;;1.80;1.40;;;19.20;99.90;;;;;;5041253;28;20223;-72
2022/09/16 05:38:50;;;;;;;1.60;1.50;;;19.20;99.90;;;;;;5043112;28;20207;-72
2022/09/16 05:41:17;;;;;;;1.60;1.50;;;19.30;99.90;;;;;;5038865;28;20310;-73
2022/09/16 05:43:44;;;;;;;1.40;1.30;;;19.40;99.90;;;;;;5043047;28;20227;-72
2022/09/16 05:46:17;;;;;;;1.40;1.30;;;19.70;99.90;;;;;;5041460;28;20677;-73
2022/09/16 05:48:44;;;;;;;1.50;1.40;;;19.80;99.90;;;;;;5043773;28;20266;-73
2022/09/16 05:51:14;;;;;;;2.58;1.60;;;19.60;99.90;;;;;;5044366;28;20219;-73
2022/09/16 05:53:43;;;;;;;1.52;1.42;;;19.60;99.90;;;;;;5044672;28;20215;-73
2022/09/16 05:56:12;;;;;;;2.03;1.50;;;19.70;99.90;;;;;;5030307;28;20597;-72
2022/09/16 05:58:39;;;;;;;1.98;1.63;;;19.80;99.90;;;;;;5046448;28;20214;-73
2022/09/16 06:01:08;;;;;;;1.50;1.40;;;20.30;99.90;;;;;;5038827;28;20235;-70
2022/09/16 06:03:36;;;;;;;1.90;1.38;;;20.80;99.90;;;;;;5043629;28;20277;-73
2022/09/16 06:06:05;;;;;;;1.40;1.30;;;21.30;99.90;;;;;;5039290;28;20223;-72
2022/09/16 06:08:34;;;;;;;4.30;1.63;;;21.70;99.90;;;;;;5041151;28;20200;-72
2022/09/16 06:11:04;;;;;;;3.45;1.70;;;22.00;99.90;;;;;;5034723;28;20216;-72
2022/09/16 06:13:31;;;;;;;2.00;1.65;;;22.20;99.90;;;;;;5030599;28;20359;-73
2022/09/16 06:15:58;;;;;;;1.45;1.35;;;22.30;99.90;;;;;;5036699;28;20254;-73
2022/09/16 06:18:28;;;;;;;2.38;1.60;;;22.50;99.90;;;;;;5029525;28;20195;-73
2022/09/16 06:20:56;;;;;;;2.45;1.85;;;22.60;99.90;;;;;;5027453;28;20792;-72
2022/09/16 06:23:23;;;;;;;2.83;1.77;;;22.60;99.90;;;;;;5033425;28;20448;-73
2022/09/16 06:25:59;;;;;;;5.85;1.83;;;22.80;99.90;;;;;;5035496;28;20311;-73
2022/09/16 06:28:28;;;;;;;2.60;2.10;;;22.90;99.90;;;;;;5033607;28;20202;-73
2022/09/16 06:31:03;;;;;;;3.28;2.00;;;23.00;99.90;;;;;;5031736;28;20261;-73
2022/09/16 06:33:30;;;;;;;3.08;2.20;;;23.20;99.90;;;;;;5032142;28;20234;-73
2022/09/16 06:35:57;;;;;;;1.90;1.60;;;23.30;99.90;;;;;;5035249;28;20302;-72
2022/09/16 06:38:25;;;;;;;2.72;1.90;;;23.30;99.90;;;;;;5032960;28;20199;-73
2022/09/16 06:40:52;;;;;;;5.40;2.05;;;23.10;99.90;;;;;;5031644;28;20223;-73
2022/09/16 06:43:19;;;;;;;2.95;2.03;;;23.00;99.90;;;;;;5029943;28;20299;-73
2022/09/16 06:45:48;;;;;;;3.75;2.05;;;23.00;99.90;;;;;;5032312;28;20249;-73
2022/09/16 06:48:15;;;;;;;2.60;1.75;;;23.20;99.90;;;;;;5036837;28;20206;-74
2022/09/16 06:50:42;;;;;;;1.95;1.60;;;23.40;99.90;;;;;;5036967;28;20219;-73
2022/09/16 06:53:09;;;;;;;2.60;1.65;;;23.50;99.90;;;;;;5039194;28;20281;-73
2022/09/16 06:55:36;;;;;;;1.65;1.48;;;23.60;99.90;;;;;;5035509;28;20282;-73
2022/09/16 06:58:03;;;;;;;1.83;1.52;;;23.60;99.90;;;;;;5038748;28;20215;-73
2022/09/16 07:00:30;;;;;;;2.33;1.65;;;23.70;99.90;;;;;;5034378;28;20219;-74
2022/09/16 07:03:01;;;;;;;2.75;1.90;;;23.60;99.90;;;;;;5036815;28;20633;-73
2022/09/16 07:05:29;;;;;;;3.78;1.88;;;23.40;99.90;;;;;;5038228;28;20223;-71
2022/09/16 07:07:57;;;;;;;3.85;1.83;;;23.20;99.90;;;;;;5033081;28;20207;-71
2022/09/16 07:10:25;;;;;;;2.28;1.65;;;23.10;99.90;;;;;;5039631;28;20227;-71
2022/09/16 07:12:52;;;;;;;3.53;2.00;;;23.20;99.90;;;;;;5038029;28;20234;-71
2022/09/16 07:15:19;;;;;;;2.28;2.00;;;23.40;99.90;;;;;;5035600;28;20226;-72
2022/09/16 07:17:46;;;;;;;2.00;1.80;;;23.60;99.90;;;;;;5036699;28;20206;-71
2022/09/16 07:20:15;;;;;;;1.70;1.60;;;23.90;99.90;;;;;;5023940;28;20238;-71
2022/09/16 07:22:42;;;;;;;1.58;1.42;;;24.10;99.90;;;;;;5031112;28;20219;-72
2022/09/16 07:25:09;;;;;;;1.35;1.25;;;24.40;99.90;;;;;;5028807;28;20234;-73
2022/09/16 07:27:36;;;;;;;2.80;1.85;;;24.40;99.90;;;;;;5026253;28;20209;-73
2022/09/16 07:30:04;;;;;;;1.73;1.30;;;24.00;99.90;;;;;;5027835;28;20234;-72
2022/09/16 07:32:31;;;;;;;2.88;1.52;;;24.00;99.90;;;;;;5030099;28;20211;-74
2022/09/16 07:34:58;;;;;;;1.30;1.20;;;24.30;99.90;;;;;;5032451;28;20245;-73
2022/09/16 07:37:26;;;;;;;2.45;1.27;;;24.40;99.90;;;;;;5033025;28;20212;-73
2022/09/16 07:39:53;;;;;;;2.22;1.50;;;24.10;99.90;;;;;;5033594;28;20235;-75
2022/09/16 07:42:21;;;;;;;3.03;1.70;;;23.80;99.90;;;;;;5035742;28;20200;-74
2022/09/16 07:44:48;;;;;;;2.65;1.30;;;24.10;99.90;;;;;;5033279;28;20468;-74
2022/09/16 07:47:16;;;;;;;3.60;1.52;;;24.00;99.90;;;;;;5034745;28;20223;-75
2022/09/16 07:49:43;;;;;;;5.28;2.03;;;23.60;99.90;;;;;;5031381;28;20227;-73
2022/09/16 07:52:10;;;;;;;2.15;1.40;;;23.00;99.90;;;;;;5041998;28;20190;-73
2022/09/16 07:54:38;;;;;;;1.48;1.38;;;23.20;99.90;;;;;;5045198;28;20273;-72
2022/09/16 07:57:05;;;;;;;3.25;1.50;;;23.70;99.90;;;;;;5043727;28;20218;-72
2022/09/16 07:59:32;;;;;;;2.40;1.60;;;24.00;99.90;;;;;;5043681;28;20227;-73
2022/09/16 08:01:59;;;;;;;2.60;1.75;;;24.20;99.90;;;;;;5044312;28;20211;-72
2022/09/16 08:04:26;;;;;;;3.15;1.30;;;24.30;99.90;;;;;;5048401;28;20223;-72
2022/09/16 08:06:53;;;;;;;1.63;1.50;;;24.40;99.90;;;;;;5046066;28;20194;-74
2022/09/16 08:09:21;;;;;;;1.50;1.40;;;24.50;99.90;;;;;;5044227;28;20227;-72
2022/09/16 08:11:50;;;;;;;1.77;1.25;;;24.70;99.90;;;;;;5042034;28;20200;-75
2022/09/16 08:14:17;;;;;;;1.58;1.13;;;24.80;99.90;;;;;;5043324;28;20223;-75
2022/09/16 08:16:44;;;;;;;2.03;1.30;;;24.90;99.90;;;;;;5043912;28;20203;-75
2022/09/16 08:19:12;;;;;;;1.40;1.30;;;25.00;99.90;;;;;;5035712;28;20208;-75
2022/09/16 08:21:39;;;;;;;2.90;1.50;;;25.10;99.90;;;;;;5033585;28;20207;-75
2022/09/16 08:24:06;;;;;;;2.40;1.48;;;25.30;99.90;;;;;;5036257;28;20254;-75
2022/09/16 08:26:33;;;;;;;1.40;1.30;;;25.30;99.90;;;;;;5034988;28;20299;-74
2022/09/16 08:29:02;;;;;;;3.63;1.73;;;25.30;99.90;;;;;;5032150;28;20211;-72
2022/09/16 08:31:29;;;;;;;5.28;1.60;;;25.20;99.90;;;;;;5034428;28;20224;-73
2022/09/16 08:33:57;;;;;;;1.90;1.70;;;25.20;99.90;;;;;;5036718;28;20231;-73
2022/09/16 08:36:26;;;;;;;1.92;1.60;;;25.20;99.90;;;;;;5034040;28;20307;-72
2022/09/16 08:38:56;;;;;;;1.88;1.67;;;25.40;99.90;;;;;;5040159;28;20198;-72
2022/09/16 08:41:48;;;;;;;2.45;1.63;;;25.40;99.90;;;;;;5037023;28;20219;-72
2022/09/16 08:44:28;;;;;;;1.98;1.55;;;25.20;99.90;;;;;;5031694;28;20257;-72
2022/09/16 08:46:59;;;;;;;2.25;1.33;;;25.20;99.90;;;;;;5029224;28;20192;-72
2022/09/16 08:49:33;;;;;;;3.35;1.50;;;25.20;99.90;;;;;;5031802;28;20199;-71
2022/09/16 08:52:04;;;;;;;2.85;1.52;;;25.40;99.90;;;;;;5034313;28;20577;-72
2022/09/16 08:54:37;;;;;;;1.50;1.40;;;25.40;99.90;;;;;;5027083;28;20235;-72
2022/09/16 08:57:06;;;;;;;2.80;1.13;;;25.40;99.90;;;;;;5030545;28;20200;-72
2022/09/16 08:59:40;;;;;;;2.10;1.58;;;25.40;99.90;;;;;;5024903;28;20222;-71
2022/09/16 09:02:26;;;;;;;2.78;1.27;;;25.60;99.90;;;;;;5023858;28;20207;-72
2022/09/16 09:04:54;;;;;;;2.60;1.45;;;25.80;99.90;;;;;;5026665;28;20222;-72
2022/09/16 09:07:27;;;;;;;1.73;1.27;;;26.00;99.90;;;;;;5029200;28;20233;-72
2022/09/16 09:10:02;;;;;;;1.33;1.23;;;25.90;99.90;;;;;;5028088;28;20761;-73
2022/09/16 09:12:39;;;;;;;2.38;1.52;;;25.90;99.90;;;;;;5029025;28;20199;-73
2022/09/16 09:15:27;;;;;;;1.92;1.20;;;25.80;99.90;;;;;;5031706;28;20214;-73
2022/09/16 09:18:04;;;;;;;1.55;1.25;;;25.70;99.90;;;;;;5027546;28;20208;-73
2022/09/16 09:20:39;;;;;;;2.63;1.60;;;25.80;99.90;;;;;;5030359;28;20219;-72
2022/09/16 09:23:27;;;;;;;2.40;1.70;;;25.80;99.90;;;;;;5033793;28;20227;-73
2022/09/16 09:26:02;;;;;;;2.22;1.42;;;25.70;99.90;;;;;;5031197;28;20211;-73
2022/09/16 09:28:57;;;;;;;1.10;1.00;;;25.90;99.90;;;;;;5028382;28;20332;-73
2022/09/16 09:31:38;;;;;;;3.95;1.60;;;26.00;99.90;;;;;;5030113;28;20859;-75
2022/09/16 09:34:16;;;;;;;1.85;1.30;;;26.10;99.90;;;;;;5024890;28;20625;-73
2022/09/16 09:36:56;;;;;;;2.47;1.20;;;26.20;99.90;;;;;;5025044;28;20477;-74
2022/09/16 09:39:35;;;;;;;2.05;1.52;;;26.40;99.90;;;;;;5028825;28;20188;-73
2022/09/16 09:42:12;;;;;;;2.45;1.80;;;26.50;99.90;;;;;;5026939;28;20196;-73
2022/09/16 09:44:47;;;;;;;2.45;1.20;;;26.50;99.90;;;;;;5026053;28;20598;-73
2022/09/16 09:47:21;;;;;;;2.20;1.52;;;26.70;99.90;;;;;;5025460;28;21882;-73
2022/09/16 09:49:52;;;;;;;1.25;1.17;;;26.70;99.90;;;;;;5028820;28;20764;-73
2022/09/16 09:52:26;;;;;;;1.42;1.33;;;26.70;99.90;;;;;;5028433;28;20295;-73
2022/09/16 09:54:53;;;;;;;1.77;1.27;;;26.70;99.90;;;;;;5029348;28;20270;-73
2022/09/16 09:57:29;;;;;;;1.27;1.17;;;26.80;99.90;;;;;;5024237;28;20192;-72
2022/09/16 10:00:03;;;;;;;3.25;1.30;;;27.00;99.90;;;;;;5025183;28;20314;-71
2022/09/16 10:02:32;;;;;;;1.48;1.20;;;26.90;99.90;;;;;;5020890;28;20200;-72
2022/09/16 10:05:01;;;;;;;1.88;1.30;;;26.90;99.90;;;;;;5028448;28;20358;-75
2022/09/16 10:07:28;;;;;;;1.75;1.65;;;26.90;99.90;;;;;;5026119;28;20287;-73
2022/09/16 10:09:59;;;;;;;1.50;1.15;;;26.80;99.90;;;;;;5030677;28;20756;-73
2022/09/16 10:12:30;;;;;;;2.05;1.30;;;26.60;99.90;;;;;;5027898;28;20192;-73
2022/09/16 10:14:58;;;;;;;2.13;1.50;;;26.70;99.90;;;;;;5028324;28;20301;-74
2022/09/16 10:17:27;;;;;;;4.63;1.30;;;26.80;99.90;;;;;;5027642;28;20219;-73
2022/09/16 10:19:58;;;;;;;1.40;1.30;;;27.00;99.90;;;;;;5026334;28;20223;-73
2022/09/16 10:22:28;;;;;;;1.42;1.33;;;27.00;99.90;;;;;;5028007;28;20231;-75
2022/09/16 10:24:57;;;;;;;1.58;1.05;;;27.00;99.90;;;;;;5032453;28;20222;-74
2022/09/16 10:27:27;;;;;;;2.17;1.10;;;27.20;99.90;;;;;;5034891;28;20196;-75
2022/09/16 10:30:15;;;;;;;3.03;1.40;;;27.40;99.90;;;;;;5028988;28;20251;-73
2022/09/16 10:32:48;;;;;;;2.05;1.40;;;27.40;99.90;;;;;;5034412;28;20218;-75
2022/09/16 10:35:23;;;;;;;2.58;1.20;;;27.30;99.90;;;;;;5037447;28;20227;-73
2022/09/16 10:37:57;;;;;;;3.92;1.20;;;27.40;99.90;;;;;;5028809;28;20191;-72
2022/09/16 10:40:25;;;;;;;2.78;1.30;;;27.50;99.90;;;;;;5028501;28;20532;-73
2022/09/16 10:42:54;;;;;;;2.28;1.10;;;27.50;99.90;;;;;;5033231;28;20223;-73
2022/09/16 10:45:27;;;;;;;1.10;1.00;;;27.60;99.90;;;;;;5031860;28;20210;-71
2022/09/16 10:47:57;;;;;;;1.42;1.20;;;27.40;99.90;;;;;;5035231;28;20204;-73
2022/09/16 10:50:27;;;;;;;2.42;1.30;;;27.30;99.90;;;;;;5032297;28;20218;-72
2022/09/16 10:52:54;;;;;;;1.60;1.42;;;27.10;99.90;;;;;;5030850;28;20215;-73
2022/09/16 10:55:26;;;;;;;1.80;1.30;;;27.00;99.90;;;;;;5024565;28;20222;-72
2022/09/16 10:57:54;;;;;;;1.50;1.00;;;27.00;99.90;;;;;;5021120;28;20257;-73
2022/09/16 11:00:23;;;;;;;1.00;1.00;;;26.90;99.90;;;;;;5021929;28;20920;-72
2022/09/16 11:03:17;;;;;;;1.10;0.90;;;27.20;99.90;;;;;;5019898;28;20793;-72
2022/09/16 11:05:56;;;;;;;0.90;0.90;;;27.50;99.90;;;;;;5012849;28;20827;-73
2022/09/16 11:08:37;;;;;;;1.38;0.98;;;27.50;99.90;;;;;;5025596;28;20634;-73
2022/09/16 11:11:13;;;;;;;1.70;1.27;;;27.70;99.90;;;;;;5019874;28;20219;-72
2022/09/16 11:13:48;;;;;;;1.35;1.00;;;28.00;99.90;;;;;;5019499;28;20246;-73
2022/09/16 11:16:28;;;;;;;0.80;0.80;;;28.00;99.90;;;;;;5018704;28;20219;-71
2022/09/16 11:19:05;;;;;;;1.38;1.10;;;28.00;99.90;;;;;;5022657;28;20199;-72
2022/09/16 11:21:48;;;;;;;1.65;1.05;;;27.80;99.90;;;;;;5021835;28;20219;-71
2022/09/16 11:24:32;;;;;;;1.23;0.85;;;27.70;99.90;;;;;;5017980;28;20215;-72
2022/09/16 11:27:06;;;;;;;1.23;0.93;;;27.40;99.90;;;;;;5012794;28;20200;-73
2022/09/16 11:29:50;;;;;;;1.13;0.93;;;27.80;99.90;;;;;;5016370;28;20231;-72
2022/09/16 11:32:27;;;;;;;3.85;1.10;;;27.90;99.90;;;;;;5015624;28;20318;-73
2022/09/16 11:35:16;;;;;;;0.65;0.65;;;28.00;99.90;;;;;;5016126;28;20219;-75
2022/09/16 11:37:51;;;;;;;1.10;1.00;;;28.00;99.90;;;;;;5019300;28;20216;-75
2022/09/16 11:40:28;;;;;;;1.23;0.80;;;28.30;99.90;;;;;;5022302;28;20314;-74
2022/09/16 11:43:05;;;;;;;0.70;0.70;;;28.80;99.90;;;;;;5022993;28;20245;-74
2022/09/16 11:45:43;;;;;;;0.90;0.68;;;29.00;99.90;;;;;;5020857;28;20230;-73
2022/09/16 11:48:31;;;;;;;1.67;0.70;;;28.90;99.90;;;;;;5024261;28;20195;-75
2022/09/16 11:51:07;;;;;;;0.88;0.85;;;28.90;99.90;;;;;;5022592;28;20270;-74
2022/09/16 11:54:03;;;;;;;1.20;1.08;;;28.70;99.90;;;;;;5026672;28;20212;-74
2022/09/16 11:56:37;;;;;;;1.42;1.00;;;28.40;99.90;;;;;;5024608;28;20234;-74
2022/09/16 11:59:13;;;;;;;1.67;0.90;;;28.50;99.90;;;;;;5021049;28;20198;-75
2022/09/16 12:01:43;;;;;;;1.88;1.10;;;28.40;99.90;;;;;;5016252;28;20224;-74
2022/09/16 12:04:15;;;;;;;1.55;1.00;;;27.80;99.90;;;;;;5015258;28;20224;-74
2022/09/16 12:06:57;;;;;;;1.25;0.90;;;27.60;99.90;;;;;;5016495;28;20196;-75
2022/09/16 12:09:33;;;;;;;3.50;0.90;;;27.80;99.90;;;;;;5018041;28;20658;-73
2022/09/16 12:12:10;;;;;;;1.55;1.00;;;28.00;99.90;;;;;;5020338;28;20283;-74
2022/09/16 12:14:41;;;;;;;0.77;0.77;;;28.30;99.90;;;;;;5018658;28;20306;-75
2022/09/16 12:17:16;;;;;;;0.75;0.70;;;28.50;99.90;;;;;;5017172;28;20238;-76
2022/09/16 12:19:47;;;;;;;1.23;1.02;;;28.70;99.90;;;;;;5020887;28;20218;-74
2022/09/16 12:22:20;;;;;;;1.10;1.00;;;28.90;99.90;;;;;;5019516;28;20212;-73
2022/09/16 12:24:57;;;;;;;1.27;0.93;;;29.00;99.90;;;;;;5020399;28;20267;-73
2022/09/16 12:27:37;;;;;;;1.30;0.80;;;28.60;99.90;;;;;;5021987;28;20218;-73
2022/09/16 12:30:11;;;;;;;1.95;0.82;;;28.00;99.90;;;;;;5016942;28;20282;-73
2022/09/16 12:32:54;;;;;;;0.77;0.77;;;27.40;99.90;;;;;;5020979;28;20210;-73
2022/09/16 12:35:27;;;;;;;0.70;0.70;;;27.30;99.90;;;;;;5027452;28;20219;-73
2022/09/16 12:37:56;;;;;;;1.10;1.00;;;27.50;99.90;;;;;;5018875;28;20191;-73
2022/09/16 12:40:28;;;;;;;0.80;0.80;;;27.50;99.90;;;;;;5021929;28;20223;-73
2022/09/16 12:43:13;;;;;;;1.17;0.80;;;27.30;99.90;;;;;;5019116;28;20208;-73
2022/09/16 12:46:10;;;;;;;0.90;0.90;;;26.90;99.90;;;;;;5027653;28;20225;-73
2022/09/16 12:49:19;;;;;;;1.27;1.17;;;26.80;99.90;;;;;;5018071;28;20290;-74
2022/09/16 12:52:13;;;;;;;1.45;1.00;;;26.90;99.90;;;;;;5020702;28;20251;-72
2022/09/16 12:55:07;;;;;;;1.05;0.93;;;26.80;99.90;;;;;;5021198;28;20760;-74
2022/09/16 12:57:47;;;;;;;1.02;0.95;;;26.70;99.90;;;;;;5018726;28;20320;-76
2022/09/16 13:00:20;;;;;;;2.33;0.95;;;27.20;99.90;;;;;;5020548;28;20219;-74
2022/09/16 13:02:50;;;;;;;1.55;1.10;;;27.40;99.90;;;;;;5025103;28;20196;-77
2022/09/16 13:05:23;;;;;;;1.55;1.20;;;27.90;99.90;;;;;;5024852;28;20235;-74
2022/09/16 13:07:54;;;;;;;1.52;1.20;;;28.00;99.90;;;;;;5016375;28;20207;-74
2022/09/16 13:10:24;;;;;;;1.17;1.00;;;28.30;99.90;;;;;;5013692;28;20223;-75
2022/09/16 13:12:55;;;;;;;1.42;1.13;;;28.50;99.90;;;;;;5017443;28;20235;-76